createdAt,value
2022-09-12T00:01:05.963Z,100.00
2022-09-12T00:03:34.171Z,100.00
2022-09-12T00:06:02.395Z,100.00
2022-09-12T00:08:30.595Z,100.00
2022-09-12T00:10:58.945Z,100.00
2022-09-12T00:13:28.558Z,100.00
2022-09-12T00:15:57.075Z,100.00
2022-09-12T00:18:25.351Z,100.00
2022-09-12T00:20:53.626Z,100.00
2022-09-12T00:23:22.203Z,100.00
2022-09-12T00:25:50.565Z,100.00
2022-09-12T00:28:19.945Z,100.00
2022-09-12T00:30:50.063Z,100.00
2022-09-12T00:33:19.156Z,100.00
2022-09-12T00:35:48.895Z,100.00
2022-09-12T00:38:18.325Z,100.00
2022-09-12T00:40:46.756Z,100.00
2022-09-12T00:43:16.409Z,100.00
2022-09-12T00:45:45.123Z,100.00
2022-09-12T00:48:24.648Z,100.00
2022-09-12T00:50:52.841Z,100.00
2022-09-12T00:53:21.396Z,100.00
2022-09-12T00:55:51.390Z,100.00
2022-09-12T00:58:22.856Z,100.00
2022-09-12T01:00:51.161Z,100.00
2022-09-12T01:03:22.094Z,100.00
2022-09-12T01:05:56.827Z,100.00
2022-09-12T01:08:26.140Z,100.00
2022-09-12T01:10:54.426Z,100.00
2022-09-12T01:13:23.398Z,100.00
2022-09-12T01:15:52.720Z,100.00
2022-09-12T01:18:28.565Z,100.00
2022-09-12T01:21:07.052Z,100.00
2022-09-12T01:24:19.637Z,100.00
2022-09-12T01:27:23.618Z,100.00
2022-09-12T01:30:19.553Z,100.00
2022-09-12T01:32:59.293Z,100.00
2022-09-12T01:35:32.734Z,100.00
2022-09-12T01:38:10.383Z,100.00
2022-09-12T01:40:44.834Z,100.00
2022-09-12T01:43:20.634Z,100.00
2022-09-12T01:45:53.061Z,100.00
2022-09-12T01:48:25.304Z,100.00
2022-09-12T01:50:55.956Z,100.00
2022-09-12T01:53:25.153Z,100.00
2022-09-12T01:55:57.640Z,100.00
2022-09-12T01:58:29.157Z,100.00
2022-09-12T02:01:03.513Z,100.00
2022-09-12T02:03:35.747Z,100.00
2022-09-12T02:06:08.534Z,100.00
2022-09-12T02:08:39.926Z,100.00
2022-09-12T02:11:09.579Z,100.00
2022-09-12T02:13:41.279Z,100.00
2022-09-12T02:16:11.646Z,100.00
2022-09-12T02:18:48.504Z,100.00
2022-09-12T02:21:17.401Z,100.00
2022-09-12T02:23:49.571Z,100.00
2022-09-12T02:26:21.771Z,100.00
2022-09-12T02:28:50.468Z,100.00
2022-09-12T02:31:23.824Z,100.00
2022-09-12T02:34:05.661Z,100.00
2022-09-12T02:36:40.086Z,100.00
2022-09-12T02:39:08.519Z,100.00
2022-09-12T02:41:37.220Z,100.00
2022-09-12T02:44:06.114Z,100.00
2022-09-12T02:46:38.998Z,100.00
2022-09-12T02:49:09.533Z,100.00
2022-09-12T02:51:37.765Z,100.00
2022-09-12T02:54:07.486Z,100.00
2022-09-12T02:56:35.938Z,100.00
2022-09-12T02:59:06.809Z,100.00
2022-09-12T03:01:50.368Z,100.00
2022-09-12T03:04:38.846Z,100.00
2022-09-12T03:07:13.962Z,100.00
2022-09-12T03:09:47.588Z,100.00
2022-09-12T03:12:25.882Z,100.00
2022-09-12T03:15:07.701Z,100.00
2022-09-12T03:17:45.290Z,100.00
2022-09-12T03:20:17.494Z,100.00
2022-09-12T03:22:53.495Z,100.00
2022-09-12T03:25:24.849Z,100.00
2022-09-12T03:27:56.874Z,100.00
2022-09-12T03:30:25.628Z,100.00
2022-09-12T03:32:55.390Z,100.00
2022-09-12T03:35:26.316Z,100.00
2022-09-12T03:37:54.678Z,100.00
2022-09-12T03:40:22.960Z,100.00
2022-09-12T03:42:51.281Z,100.00
2022-09-12T03:45:19.591Z,100.00
2022-09-12T03:47:47.862Z,100.00
2022-09-12T03:50:16.226Z,100.00
2022-09-12T03:52:45.892Z,100.00
2022-09-12T03:55:14.315Z,100.00
2022-09-12T03:57:42.590Z,100.00
2022-09-12T04:00:11.395Z,100.00
2022-09-12T04:02:39.696Z,100.00
2022-09-12T04:05:08.320Z,100.00
2022-09-12T04:07:36.656Z,100.00
2022-09-12T04:10:07.211Z,100.00
2022-09-12T04:12:35.957Z,100.00
2022-09-12T04:15:04.431Z,100.00
2022-09-12T04:17:32.763Z,100.00
2022-09-12T04:20:01.161Z,100.00
2022-09-12T04:22:30.113Z,100.00
2022-09-12T04:24:58.474Z,100.00
2022-09-12T04:27:28.321Z,100.00
2022-09-12T04:29:57.411Z,100.00
2022-09-12T04:32:25.929Z,100.00
2022-09-12T04:34:54.358Z,100.00
2022-09-12T04:37:23.713Z,100.00
2022-09-12T04:39:56.182Z,100.00
2022-09-12T04:42:24.600Z,100.00
2022-09-12T04:44:54.718Z,100.00
2022-09-12T04:47:23.200Z,100.00
2022-09-12T04:49:52.452Z,100.00
2022-09-12T04:52:20.858Z,100.00
2022-09-12T04:54:49.189Z,100.00
2022-09-12T04:57:17.653Z,100.00
2022-09-12T04:59:46.100Z,100.00
2022-09-12T05:02:16.305Z,100.00
2022-09-12T05:04:44.852Z,100.00
2022-09-12T05:07:13.138Z,100.00
2022-09-12T05:09:41.630Z,100.00
2022-09-12T05:12:10.158Z,100.00
2022-09-12T05:14:38.430Z,100.00
2022-09-12T05:17:06.992Z,100.00
2022-09-12T05:19:38.005Z,100.00
2022-09-12T05:22:06.867Z,100.00
2022-09-12T05:24:35.513Z,100.00
2022-09-12T05:27:04.818Z,100.00
2022-09-12T05:29:34.100Z,100.00
2022-09-12T05:32:02.966Z,100.00
2022-09-12T05:34:31.502Z,100.00
2022-09-12T05:37:01.242Z,100.00
2022-09-12T05:39:29.726Z,100.00
2022-09-12T05:41:57.999Z,100.00
2022-09-12T05:44:26.789Z,100.00
2022-09-12T05:46:55.105Z,100.00
2022-09-12T05:49:23.456Z,100.00
2022-09-12T05:51:52.686Z,100.00
2022-09-12T05:54:22.959Z,100.00
2022-09-12T05:56:51.280Z,100.00
2022-09-12T05:59:21.182Z,100.00
2022-09-12T06:01:49.945Z,100.00
2022-09-12T06:04:18.714Z,100.00
2022-09-12T06:06:48.738Z,100.00
2022-09-12T06:09:18.016Z,100.00
2022-09-12T06:11:48.186Z,100.00
2022-09-12T06:14:17.589Z,100.00
2022-09-12T06:16:47.243Z,100.00
2022-09-12T06:19:17.852Z,100.00
2022-09-12T06:21:47.553Z,100.00
2022-09-12T06:24:15.974Z,100.00
2022-09-12T06:26:44.694Z,100.00
2022-09-12T06:29:14.767Z,100.00
2022-09-12T06:31:44.381Z,100.00
2022-09-12T06:34:14.405Z,100.00
2022-09-12T06:36:44.284Z,100.00
2022-09-12T06:39:14.066Z,100.00
2022-09-12T06:44:29.901Z,100.00
2022-09-12T06:46:58.782Z,100.00
2022-09-12T06:49:27.123Z,100.00
2022-09-12T06:51:55.376Z,100.00
2022-09-12T06:54:23.735Z,100.00
2022-09-12T06:56:52.171Z,100.00
2022-09-12T06:59:20.458Z,100.00
2022-09-12T07:01:50.947Z,100.00
2022-09-12T07:04:19.924Z,100.00
2022-09-12T07:06:48.320Z,100.00
2022-09-12T07:09:17.418Z,100.00
2022-09-12T07:11:47.293Z,100.00
2022-09-12T07:14:16.233Z,100.00
2022-09-12T07:16:45.083Z,100.00
2022-09-12T07:19:14.843Z,100.00
2022-09-12T07:21:43.184Z,100.00
2022-09-12T07:24:11.779Z,100.00
2022-09-12T07:26:42.245Z,100.00
2022-09-12T07:32:04.242Z,100.00
2022-09-12T07:34:34.137Z,100.00
2022-09-12T07:37:02.453Z,100.00
2022-09-12T07:39:30.805Z,100.00
2022-09-12T07:42:00.457Z,100.00
2022-09-12T07:44:29.415Z,100.00
2022-09-12T07:46:57.728Z,100.00
2022-09-12T07:49:26.053Z,100.00
2022-09-12T07:51:55.808Z,100.00
2022-09-12T07:54:24.425Z,100.00
2022-09-12T07:56:52.859Z,100.00
2022-09-12T07:59:41.402Z,100.00
2022-09-12T08:02:16.839Z,100.00
2022-09-12T08:04:46.780Z,100.00
2022-09-12T08:07:18.379Z,100.00
2022-09-12T08:09:47.345Z,100.00
2022-09-12T08:12:16.584Z,99.42
2022-09-12T08:17:30.553Z,100.00
2022-09-12T08:19:58.916Z,100.00
2022-09-12T08:22:28.631Z,99.33
2022-09-12T08:24:56.981Z,94.61
2022-09-12T08:27:25.367Z,100.00
2022-09-12T08:29:53.802Z,100.00
2022-09-12T08:32:22.314Z,100.00
2022-09-12T08:34:50.564Z,100.00
2022-09-12T08:37:20.495Z,100.00
2022-09-12T08:39:50.221Z,100.00
2022-09-12T08:42:25.770Z,100.00
2022-09-12T08:45:06.775Z,100.00
2022-09-12T08:47:37.449Z,100.00
2022-09-12T08:50:13.075Z,100.00
2022-09-12T08:52:46.271Z,100.00
2022-09-12T08:55:32.726Z,96.74
2022-09-12T08:58:02.079Z,100.00
2022-09-12T09:00:38.945Z,100.00
2022-09-12T09:03:38.743Z,86.23
2022-09-12T09:06:14.385Z,90.41
2022-09-12T09:08:58.744Z,90.77
2022-09-12T09:11:41.789Z,90.67
2022-09-12T09:14:44.495Z,79.41
2022-09-12T09:17:16.063Z,88.10
2022-09-12T09:22:44.559Z,98.91
2022-09-12T09:25:22.072Z,93.90
2022-09-12T09:27:57.711Z,84.23
2022-09-12T09:30:26.015Z,89.29
2022-09-12T09:32:56.545Z,93.11
2022-09-12T09:35:36.315Z,93.19
2022-09-12T09:38:08.667Z,78.22
2022-09-12T09:40:46.348Z,73.86
2022-09-12T09:43:22.885Z,76.84
2022-09-12T09:45:51.844Z,76.83
2022-09-12T09:48:21.198Z,82.25
2022-09-12T09:50:50.452Z,77.10
2022-09-12T09:53:27.803Z,75.09
2022-09-12T09:55:56.945Z,72.43
2022-09-12T09:58:33.915Z,73.63
2022-09-12T10:01:03.603Z,78.61
2022-09-12T10:03:33.980Z,66.06
2022-09-12T10:06:03.009Z,72.17
2022-09-12T10:08:32.806Z,79.24
2022-09-12T10:11:03.262Z,76.58
2022-09-12T10:13:47.980Z,72.83
2022-09-12T10:16:22.588Z,93.57
2022-09-12T10:18:52.554Z,87.71
2022-09-12T10:21:28.047Z,85.10
2022-09-12T10:24:03.231Z,78.91
2022-09-12T10:26:37.306Z,68.98
2022-09-12T10:29:13.806Z,67.52
2022-09-12T10:31:46.313Z,60.92
2022-09-12T10:34:24.021Z,63.68
2022-09-12T10:36:54.984Z,61.46
2022-09-12T10:39:24.043Z,68.46
2022-09-12T10:41:52.334Z,68.85
2022-09-12T10:44:27.353Z,62.58
2022-09-12T10:46:55.898Z,61.56
2022-09-12T10:49:27.762Z,54.99
2022-09-12T10:51:59.424Z,52.85
2022-09-12T10:54:29.565Z,53.41
2022-09-12T10:57:18.020Z,53.93
2022-09-12T11:00:06.569Z,55.53
2022-09-12T11:02:52.200Z,53.04
2022-09-12T11:05:36.841Z,54.50
2022-09-12T11:08:13.297Z,57.62
2022-09-12T11:10:46.692Z,60.52
2022-09-12T11:13:22.732Z,52.61
2022-09-12T11:16:07.473Z,48.76
2022-09-12T11:19:05.037Z,50.09
2022-09-12T11:21:45.112Z,46.82
2022-09-12T11:24:35.147Z,47.91
2022-09-12T11:27:13.968Z,47.45
2022-09-12T11:29:50.986Z,48.48
2022-09-12T11:32:47.010Z,49.00
2022-09-12T11:35:20.852Z,49.11
2022-09-12T11:38:01.073Z,49.18
2022-09-12T11:40:33.650Z,51.45
2022-09-12T11:43:05.790Z,52.84
2022-09-12T11:45:38.820Z,48.95
2022-09-12T11:48:11.962Z,49.31
2022-09-12T11:50:40.264Z,50.04
2022-09-12T11:53:17.098Z,51.77
2022-09-12T11:55:54.973Z,51.11
2022-09-12T11:58:26.211Z,46.49
2022-09-12T12:00:57.477Z,43.50
2022-09-12T12:03:33.284Z,48.51
2022-09-12T12:06:05.861Z,53.48
2022-09-12T12:08:39.491Z,51.35
2022-09-12T12:11:09.107Z,48.58
2022-09-12T12:13:39.708Z,48.79
2022-09-12T12:16:09.859Z,49.05
2022-09-12T12:18:40.438Z,49.75
2022-09-12T12:21:23.150Z,46.20
2022-09-12T12:24:05.241Z,48.21
2022-09-12T12:26:47.457Z,43.57
2022-09-12T12:29:40.364Z,43.88
2022-09-12T12:32:27.742Z,42.54
2022-09-12T12:35:39.518Z,43.47
2022-09-12T12:38:29.318Z,44.24
2022-09-12T12:41:45.334Z,45.12
2022-09-12T12:44:48.993Z,42.71
2022-09-12T12:47:20.256Z,43.92
2022-09-12T12:49:53.556Z,43.64
2022-09-12T12:52:23.327Z,43.34
2022-09-12T12:54:54.715Z,43.61
2022-09-12T12:57:42.753Z,43.83
2022-09-12T13:00:30.043Z,42.64
2022-09-12T13:03:01.247Z,41.22
2022-09-12T13:05:32.152Z,39.95
2022-09-12T13:08:04.829Z,42.47
2022-09-12T13:10:33.246Z,41.73
2022-09-12T13:13:05.254Z,41.79
2022-09-12T13:15:57.220Z,39.79
2022-09-12T13:18:28.689Z,39.83
2022-09-12T13:21:02.382Z,40.15
2022-09-12T13:23:33.996Z,39.72
2022-09-12T13:26:03.399Z,38.93
2022-09-12T13:28:32.314Z,41.02
2022-09-12T13:31:03.045Z,41.25
2022-09-12T13:33:36.232Z,43.60
2022-09-12T13:36:44.257Z,42.59
2022-09-12T13:39:34.091Z,42.11
2022-09-12T13:42:17.912Z,40.09
2022-09-12T13:44:48.905Z,39.03
2022-09-12T13:47:26.523Z,39.82
2022-09-12T13:49:55.789Z,38.67
2022-09-12T13:52:27.287Z,40.70
2022-09-12T13:54:59.566Z,38.64
2022-09-12T13:57:31.078Z,37.66
2022-09-12T14:00:00.444Z,38.02
2022-09-12T14:02:31.303Z,36.81
2022-09-12T14:05:09.109Z,38.27
2022-09-12T14:07:53.362Z,38.38
2022-09-12T14:10:28.184Z,36.36
2022-09-12T14:12:57.319Z,38.38
2022-09-12T14:15:28.784Z,40.13
2022-09-12T14:18:01.489Z,38.92
2022-09-12T14:20:32.754Z,39.87
2022-09-12T14:23:03.070Z,38.12
2022-09-12T14:25:39.088Z,40.59
2022-09-12T14:28:07.612Z,38.70
2022-09-12T14:30:37.358Z,37.42
2022-09-12T14:33:20.801Z,36.65
2022-09-12T14:35:50.279Z,38.54
2022-09-12T14:38:33.009Z,37.11
2022-09-12T14:41:04.389Z,36.10
2022-09-12T14:43:34.726Z,36.65
2022-09-12T14:46:04.735Z,36.27
2022-09-12T14:48:36.382Z,36.97
2022-09-12T14:51:05.308Z,35.10
2022-09-12T14:53:34.997Z,34.50
2022-09-12T14:56:12.734Z,35.28
2022-09-12T14:58:42.202Z,34.58
2022-09-12T15:01:25.441Z,33.49
2022-09-12T15:03:57.282Z,35.09
2022-09-12T15:06:29.748Z,35.30
2022-09-12T15:08:59.380Z,34.31
2022-09-12T15:11:29.217Z,33.88
2022-09-12T15:13:57.656Z,33.28
2022-09-12T15:16:26.055Z,34.22
2022-09-12T15:18:54.367Z,32.90
2022-09-12T15:21:22.617Z,34.08
2022-09-12T15:23:51.827Z,34.16
2022-09-12T15:26:21.778Z,35.03
2022-09-12T15:28:52.067Z,34.58
2022-09-12T15:31:25.385Z,33.90
2022-09-12T15:33:54.398Z,34.16
2022-09-12T15:36:23.976Z,34.22
2022-09-12T15:38:53.013Z,34.01
2022-09-12T15:41:23.246Z,34.26
2022-09-12T15:43:52.795Z,34.95
2022-09-12T15:46:21.548Z,34.44
2022-09-12T15:48:50.170Z,32.62
2022-09-12T15:51:20.416Z,33.47
2022-09-12T15:53:48.924Z,33.85
2022-09-12T15:56:18.532Z,33.45
2022-09-12T15:58:58.249Z,34.18
2022-09-12T16:01:29.850Z,35.38
2022-09-12T16:03:58.439Z,34.47
2022-09-12T16:06:27.905Z,34.02
2022-09-12T16:08:56.270Z,33.96
2022-09-12T16:11:26.467Z,34.37
2022-09-12T16:13:54.947Z,34.46
2022-09-12T16:16:23.484Z,35.18
2022-09-12T16:18:53.272Z,35.29
2022-09-12T16:21:21.690Z,35.69
2022-09-12T16:23:50.343Z,36.10
2022-09-12T16:26:18.811Z,35.54
2022-09-12T16:28:47.305Z,37.00
2022-09-12T16:31:16.058Z,37.18
2022-09-12T16:33:44.352Z,37.54
2022-09-12T16:36:15.716Z,37.36
2022-09-12T16:38:44.637Z,38.10
2022-09-12T16:41:13.868Z,38.18
2022-09-12T16:43:42.908Z,37.88
2022-09-12T16:46:13.744Z,38.06
2022-09-12T16:48:49.385Z,39.15
2022-09-12T16:51:22.914Z,39.93
2022-09-12T16:53:51.776Z,39.17
2022-09-12T16:56:20.843Z,39.36
2022-09-12T16:58:49.252Z,39.33
2022-09-12T17:01:19.262Z,40.78
2022-09-12T17:03:47.748Z,41.63
2022-09-12T17:06:18.101Z,41.65
2022-09-12T17:08:48.143Z,43.53
2022-09-12T17:11:18.618Z,42.92
2022-09-12T17:14:04.027Z,43.68
2022-09-12T17:16:34.342Z,44.33
2022-09-12T17:19:02.884Z,43.95
2022-09-12T17:21:31.179Z,43.49
2022-09-12T17:24:00.839Z,45.21
2022-09-12T17:26:29.155Z,46.06
2022-09-12T17:28:57.442Z,46.79
2022-09-12T17:31:26.710Z,50.82
2022-09-12T17:33:58.050Z,52.58
2022-09-12T17:36:27.048Z,58.24
2022-09-12T17:38:55.555Z,60.50
2022-09-12T17:41:26.317Z,58.80
2022-09-12T17:43:57.375Z,61.99
2022-09-12T17:46:27.166Z,58.97
2022-09-12T17:48:57.342Z,58.08
2022-09-12T17:51:28.907Z,58.32
2022-09-12T17:54:00.116Z,61.93
2022-09-12T17:56:31.800Z,79.89
2022-09-12T17:59:00.887Z,67.94
2022-09-12T18:01:47.955Z,73.49
2022-09-12T18:04:16.785Z,80.25
2022-09-12T18:06:48.144Z,77.26
2022-09-12T18:09:17.794Z,84.73
2022-09-12T18:11:48.475Z,84.42
2022-09-12T18:14:17.502Z,88.51
2022-09-12T18:16:46.267Z,87.08
2022-09-12T18:19:15.180Z,96.14
2022-09-12T18:21:43.499Z,100.00
2022-09-12T18:24:12.059Z,95.72
2022-09-12T18:26:40.397Z,92.86
2022-09-12T18:29:10.098Z,94.37
2022-09-12T18:31:38.424Z,98.38
2022-09-12T18:34:12.556Z,99.05
2022-09-12T18:36:41.549Z,100.00
2022-09-12T18:39:09.840Z,100.00
2022-09-12T18:41:39.005Z,100.00
2022-09-12T18:44:08.334Z,100.00
2022-09-12T18:46:38.144Z,100.00
2022-09-12T18:49:07.471Z,100.00
2022-09-12T18:51:37.241Z,100.00
2022-09-12T18:54:07.347Z,100.00
2022-09-12T18:56:38.406Z,100.00
2022-09-12T18:59:08.077Z,100.00
2022-09-12T19:01:38.845Z,100.00
2022-09-12T19:04:08.031Z,100.00
2022-09-12T19:06:37.747Z,100.00
2022-09-12T19:09:08.241Z,100.00
2022-09-12T19:11:38.433Z,100.00
2022-09-12T19:14:07.715Z,100.00
2022-09-12T19:16:37.472Z,100.00
2022-09-12T19:19:06.241Z,100.00
2022-09-12T19:21:35.415Z,100.00
2022-09-12T19:24:05.778Z,100.00
2022-09-12T19:26:34.671Z,100.00
2022-09-12T19:29:03.555Z,100.00
2022-09-12T19:31:32.490Z,100.00
2022-09-12T19:34:03.200Z,100.00
2022-09-12T19:36:44.979Z,100.00
2022-09-12T19:39:14.281Z,100.00
2022-09-12T19:41:42.632Z,100.00
2022-09-12T19:44:11.590Z,100.00
2022-09-12T19:46:40.379Z,100.00
2022-09-12T19:49:11.102Z,100.00
2022-09-12T19:51:39.549Z,100.00
2022-09-12T19:54:07.912Z,100.00
2022-09-12T19:56:36.268Z,100.00
2022-09-12T19:59:04.553Z,100.00
2022-09-12T20:01:33.281Z,100.00
2022-09-12T20:04:01.911Z,100.00
2022-09-12T20:06:31.647Z,100.00
2022-09-12T20:09:00.116Z,100.00
2022-09-12T20:11:28.382Z,100.00
2022-09-12T20:13:56.740Z,100.00
2022-09-12T20:16:29.156Z,100.00
2022-09-12T20:18:59.329Z,100.00
2022-09-12T20:21:31.442Z,100.00
2022-09-12T20:24:06.035Z,100.00
2022-09-12T20:26:34.789Z,100.00
2022-09-12T20:29:03.310Z,100.00
2022-09-12T20:31:31.995Z,100.00
2022-09-12T20:34:00.668Z,100.00
2022-09-12T20:36:29.388Z,100.00
2022-09-12T20:39:00.192Z,100.00
2022-09-12T20:41:34.065Z,100.00
2022-09-12T20:44:02.462Z,100.00
2022-09-12T20:46:30.873Z,100.00
2022-09-12T20:48:59.545Z,100.00
2022-09-12T20:51:29.694Z,100.00
2022-09-12T20:53:58.746Z,100.00
2022-09-12T20:56:29.386Z,100.00
2022-09-12T20:58:57.787Z,100.00
2022-09-12T21:01:27.412Z,100.00
2022-09-12T21:03:55.888Z,100.00
2022-09-12T21:06:24.707Z,100.00
2022-09-12T21:08:54.073Z,100.00
2022-09-12T21:11:22.438Z,100.00
2022-09-12T21:13:52.750Z,100.00
2022-09-12T21:16:22.711Z,100.00
2022-09-12T21:18:54.784Z,100.00
2022-09-12T21:21:23.261Z,100.00
2022-09-12T21:23:51.811Z,100.00
2022-09-12T21:26:20.092Z,100.00
2022-09-12T21:28:49.592Z,100.00
2022-09-12T21:31:19.243Z,100.00
2022-09-12T21:33:47.702Z,100.00
2022-09-12T21:36:16.114Z,100.00
2022-09-12T21:38:44.454Z,100.00
2022-09-12T21:41:13.952Z,100.00
2022-09-12T21:43:42.714Z,100.00
2022-09-12T21:46:11.641Z,100.00
2022-09-12T21:48:41.477Z,100.00
2022-09-12T21:51:09.841Z,100.00
2022-09-12T21:53:38.126Z,100.00
2022-09-12T21:56:08.236Z,100.00
2022-09-12T21:58:37.077Z,100.00
2022-09-12T22:01:08.561Z,100.00
2022-09-12T22:03:36.966Z,100.00
2022-09-12T22:06:07.622Z,100.00
2022-09-12T22:08:37.345Z,100.00
2022-09-12T22:11:09.678Z,100.00
2022-09-12T22:13:39.379Z,100.00
2022-09-12T22:16:08.519Z,100.00
2022-09-12T22:18:38.144Z,100.00
2022-09-12T22:21:09.616Z,100.00
2022-09-12T22:23:55.533Z,100.00
2022-09-12T22:26:24.014Z,100.00
2022-09-12T22:28:52.466Z,100.00
2022-09-12T22:31:20.967Z,100.00
2022-09-12T22:33:51.535Z,100.00
2022-09-12T22:36:21.006Z,100.00
2022-09-12T22:38:49.383Z,100.00
2022-09-12T22:41:17.923Z,100.00
2022-09-12T22:43:46.377Z,100.00
2022-09-12T22:46:14.720Z,100.00
2022-09-12T22:48:43.204Z,100.00
2022-09-12T22:51:12.124Z,100.00
2022-09-12T22:53:41.832Z,100.00
2022-09-12T22:56:10.533Z,100.00
2022-09-12T22:58:38.884Z,100.00
2022-09-12T23:01:07.640Z,100.00
2022-09-12T23:03:36.471Z,100.00
2022-09-12T23:06:05.080Z,100.00
2022-09-12T23:08:34.724Z,100.00
2022-09-12T23:11:06.496Z,100.00
2022-09-12T23:13:34.844Z,100.00
2022-09-12T23:16:05.645Z,100.00
2022-09-12T23:18:35.768Z,100.00
2022-09-12T23:21:06.185Z,100.00
2022-09-12T23:23:34.996Z,100.00
2022-09-12T23:26:06.874Z,100.00
2022-09-12T23:28:35.481Z,100.00
2022-09-12T23:31:04.434Z,100.00
2022-09-12T23:33:33.533Z,100.00
2022-09-12T23:36:02.203Z,100.00
2022-09-12T23:38:31.048Z,100.00
2022-09-12T23:40:59.624Z,100.00
2022-09-12T23:43:29.606Z,100.00
2022-09-12T23:45:58.489Z,100.00
2022-09-12T23:48:27.147Z,100.00
2022-09-12T23:50:55.632Z,100.00
2022-09-12T23:53:24.301Z,100.00
2022-09-12T23:55:52.844Z,100.00
2022-09-12T23:58:21.675Z,100.00
